createdAt,value
2016-11-22T00:00:14.376Z,945.55
2016-11-22T00:01:13.961Z,945.52
2016-11-22T00:02:12.639Z,945.52
2016-11-22T00:03:12.517Z,945.51
2016-11-22T00:04:12.825Z,945.51
2016-11-22T00:05:11.944Z,945.52
2016-11-22T00:06:12.526Z,945.53
2016-11-22T00:07:12.715Z,945.55
2016-11-22T00:08:15.573Z,945.53
2016-11-22T00:09:12.602Z,945.55
2016-11-22T00:10:14.020Z,945.52
2016-11-22T00:11:12.413Z,945.51
2016-11-22T00:12:12.514Z,945.61
2016-11-22T00:13:13.382Z,945.58
2016-11-22T00:14:12.353Z,945.60
2016-11-22T00:15:12.244Z,945.59
2016-11-22T00:16:13.974Z,945.61
2016-11-22T00:17:12.513Z,945.61
2016-11-22T00:18:12.696Z,945.64
2016-11-22T00:19:12.723Z,945.59
2016-11-22T00:20:13.476Z,945.62
2016-11-22T00:21:13.100Z,945.60
2016-11-22T00:22:12.244Z,945.62
2016-11-22T00:23:12.224Z,945.69
2016-11-22T00:24:12.380Z,945.68
2016-11-22T00:25:13.965Z,945.68
2016-11-22T00:26:12.572Z,945.70
2016-11-22T00:27:12.492Z,945.70
2016-11-22T00:28:13.284Z,945.71
2016-11-22T00:29:12.434Z,945.71
2016-11-22T00:30:14.647Z,945.72
2016-11-22T00:31:13.184Z,945.74
2016-11-22T00:32:09.660Z,945.74
2016-11-22T00:33:11.871Z,945.79
2016-11-22T00:34:12.005Z,945.78
2016-11-22T00:35:11.944Z,945.78
2016-11-22T00:36:10.802Z,945.77
2016-11-22T00:37:10.803Z,945.83
2016-11-22T00:38:12.710Z,945.84
2016-11-22T00:39:12.755Z,945.85
2016-11-22T00:40:14.505Z,945.78
2016-11-22T00:41:13.024Z,945.76
2016-11-22T00:42:12.800Z,945.73
2016-11-22T00:43:12.621Z,945.66
2016-11-22T00:44:13.159Z,945.66
2016-11-22T00:45:13.705Z,945.65
2016-11-22T00:46:11.372Z,945.66
2016-11-22T00:47:13.081Z,945.75
2016-11-22T00:48:12.124Z,945.77
2016-11-22T00:49:12.831Z,945.78
2016-11-22T00:50:12.041Z,945.77
2016-11-22T00:51:12.914Z,945.76
2016-11-22T00:52:12.203Z,945.79
2016-11-22T00:53:12.745Z,945.77
2016-11-22T00:54:13.350Z,945.77
2016-11-22T00:55:12.891Z,945.79
2016-11-22T00:56:12.402Z,945.78
2016-11-22T00:57:12.910Z,945.78
2016-11-22T00:58:12.628Z,945.75
2016-11-22T00:59:12.542Z,945.83
2016-11-22T01:00:12.864Z,945.83
2016-11-22T01:01:11.842Z,945.85
2016-11-22T01:02:13.784Z,945.89
2016-11-22T01:03:13.455Z,945.92
2016-11-22T01:04:12.514Z,945.95
2016-11-22T01:05:13.929Z,945.96
2016-11-22T01:06:13.005Z,945.95
2016-11-22T01:07:13.875Z,945.96
2016-11-22T01:08:14.990Z,946.02
2016-11-22T01:09:12.617Z,946.00
2016-11-22T01:10:12.481Z,946.03
2016-11-22T01:11:12.864Z,946.05
2016-11-22T01:12:12.996Z,945.99
2016-11-22T01:13:13.765Z,946.02
2016-11-22T01:14:11.777Z,945.98
2016-11-22T01:15:13.231Z,945.96
2016-11-22T01:16:11.042Z,946.01
2016-11-22T01:17:14.772Z,946.00
2016-11-22T01:18:12.645Z,945.95
2016-11-22T01:19:13.568Z,945.96
2016-11-22T01:20:12.761Z,945.95
2016-11-22T01:21:13.823Z,945.94
2016-11-22T01:22:13.157Z,945.94
2016-11-22T01:23:13.323Z,945.99
2016-11-22T01:24:13.273Z,945.99
2016-11-22T01:25:13.618Z,945.99
2016-11-22T01:26:12.128Z,945.98
2016-11-22T01:27:13.284Z,945.96
2016-11-22T01:28:12.343Z,946.02
2016-11-22T01:29:12.663Z,946.03
2016-11-22T01:30:14.343Z,946.02
2016-11-22T01:31:12.725Z,946.02
2016-11-22T01:32:14.377Z,946.07
2016-11-22T01:33:12.850Z,946.05
2016-11-22T01:34:12.179Z,946.01
2016-11-22T01:35:10.964Z,946.08
2016-11-22T01:36:13.895Z,946.10
2016-11-22T01:37:13.287Z,946.08
2016-11-22T01:38:12.858Z,946.08
2016-11-22T01:39:12.707Z,946.07
2016-11-22T01:40:13.667Z,946.10
2016-11-22T01:41:14.307Z,946.11
2016-11-22T01:42:12.816Z,946.09
2016-11-22T01:43:12.639Z,946.11
2016-11-22T01:44:14.086Z,946.06
2016-11-22T01:45:13.175Z,946.09
2016-11-22T01:46:13.668Z,946.06
2016-11-22T01:47:13.260Z,946.10
2016-11-22T01:48:12.868Z,946.08
2016-11-22T01:49:12.803Z,946.07
2016-11-22T01:50:12.512Z,946.05
2016-11-22T01:51:13.157Z,946.10
2016-11-22T01:52:13.657Z,946.07
2016-11-22T01:53:11.417Z,946.07
2016-11-22T01:54:12.316Z,946.08
2016-11-22T01:55:12.283Z,946.10
2016-11-22T01:56:16.981Z,946.14
2016-11-22T01:57:12.898Z,946.16
2016-11-22T01:58:12.626Z,946.11
2016-11-22T01:59:12.736Z,946.17
2016-11-22T02:00:13.736Z,946.13
2016-11-22T02:01:13.649Z,946.11
2016-11-22T02:02:12.514Z,946.07
2016-11-22T02:03:11.904Z,946.07
2016-11-22T02:04:12.934Z,946.08
2016-11-22T02:05:13.332Z,946.04
2016-11-22T02:06:12.908Z,946.06
2016-11-22T02:07:13.127Z,946.06
2016-11-22T02:08:12.947Z,946.06
2016-11-22T02:09:12.176Z,946.03
2016-11-22T02:10:12.943Z,946.02
2016-11-22T02:11:13.390Z,946.06
2016-11-22T02:12:14.116Z,946.10
2016-11-22T02:13:12.416Z,946.06
2016-11-22T02:14:12.363Z,946.08
2016-11-22T02:15:12.870Z,946.09
2016-11-22T02:16:13.255Z,946.07
2016-11-22T02:17:13.141Z,946.09
2016-11-22T02:18:12.753Z,946.11
2016-11-22T02:19:12.921Z,946.12
2016-11-22T02:20:13.422Z,946.15
2016-11-22T02:21:13.541Z,946.17
2016-11-22T02:22:13.923Z,946.21
2016-11-22T02:23:12.556Z,946.19
2016-11-22T02:24:14.127Z,946.16
2016-11-22T02:25:12.564Z,946.19
2016-11-22T02:26:12.669Z,946.17
2016-11-22T02:27:13.286Z,946.22
2016-11-22T02:28:13.196Z,946.19
2016-11-22T02:29:12.224Z,946.20
2016-11-22T02:30:12.339Z,946.22
2016-11-22T02:31:12.440Z,946.24
2016-11-22T02:32:12.996Z,946.17
2016-11-22T02:33:12.840Z,946.18
2016-11-22T02:34:12.872Z,946.25
2016-11-22T02:35:11.854Z,946.26
2016-11-22T02:36:12.605Z,946.32
2016-11-22T02:37:12.770Z,946.28
2016-11-22T02:38:12.099Z,946.27
2016-11-22T02:39:14.663Z,946.27
2016-11-22T02:40:13.474Z,946.30
2016-11-22T02:41:13.101Z,946.28
2016-11-22T02:42:11.127Z,946.28
2016-11-22T02:43:13.638Z,946.28
2016-11-22T02:44:13.148Z,946.29
2016-11-22T02:45:12.848Z,946.25
2016-11-22T02:46:12.017Z,946.29
2016-11-22T02:47:13.128Z,946.30
2016-11-22T02:48:12.184Z,946.31
2016-11-22T02:49:12.744Z,946.32
2016-11-22T02:50:12.614Z,946.31
2016-11-22T02:51:12.571Z,946.32
2016-11-22T02:52:14.184Z,946.33
2016-11-22T02:53:13.023Z,946.36
2016-11-22T02:54:13.842Z,946.36
2016-11-22T02:55:12.633Z,946.37
2016-11-22T02:56:12.543Z,946.36
2016-11-22T02:57:11.162Z,946.35
2016-11-22T02:58:13.390Z,946.38
2016-11-22T02:59:12.431Z,946.33
2016-11-22T03:00:12.500Z,946.37
2016-11-22T03:01:14.353Z,946.37
2016-11-22T03:02:12.400Z,946.39
2016-11-22T03:03:13.948Z,946.39
2016-11-22T03:04:12.487Z,946.45
2016-11-22T03:05:13.981Z,946.43
2016-11-22T03:06:12.029Z,946.48
2016-11-22T03:07:13.755Z,946.48
2016-11-22T03:08:12.003Z,946.48
2016-11-22T03:09:12.879Z,946.52
2016-11-22T03:10:11.947Z,946.48
2016-11-22T03:11:12.104Z,946.52
2016-11-22T03:12:13.601Z,946.55
2016-11-22T03:13:12.794Z,946.57
2016-11-22T03:14:13.221Z,946.56
2016-11-22T03:15:12.203Z,946.60
2016-11-22T03:16:12.435Z,946.61
2016-11-22T03:17:13.302Z,946.62
2016-11-22T03:18:12.822Z,946.59
2016-11-22T03:19:12.863Z,946.61
2016-11-22T03:20:12.819Z,946.59
2016-11-22T03:21:12.349Z,946.57
2016-11-22T03:22:12.444Z,946.59
2016-11-22T03:23:12.290Z,946.61
2016-11-22T03:24:12.830Z,946.62
2016-11-22T03:25:12.561Z,946.63
2016-11-22T03:26:13.320Z,946.64
2016-11-22T03:27:13.187Z,946.62
2016-11-22T03:28:14.893Z,946.63
2016-11-22T03:29:12.801Z,946.61
2016-11-22T03:30:12.710Z,946.65
2016-11-22T03:31:12.940Z,946.63
2016-11-22T03:32:12.911Z,946.64
2016-11-22T03:33:12.681Z,946.66
2016-11-22T03:34:10.895Z,946.67
2016-11-22T03:35:12.267Z,946.66
2016-11-22T03:36:14.999Z,946.66
2016-11-22T03:37:13.776Z,946.64
2016-11-22T03:38:12.040Z,946.61
2016-11-22T03:39:11.988Z,946.59
2016-11-22T03:40:13.278Z,946.59
2016-11-22T03:41:12.978Z,946.63
2016-11-22T03:42:12.069Z,946.62
2016-11-22T03:43:12.197Z,946.61
2016-11-22T03:44:12.159Z,946.63
2016-11-22T03:45:10.835Z,946.65
2016-11-22T03:46:13.041Z,946.62
2016-11-22T03:47:12.087Z,946.61
2016-11-22T03:48:12.130Z,946.61
2016-11-22T03:49:12.691Z,946.64
2016-11-22T03:50:12.934Z,946.68
2016-11-22T03:51:12.302Z,946.63
2016-11-22T03:52:12.887Z,946.70
2016-11-22T03:53:11.978Z,946.66
2016-11-22T03:54:13.045Z,946.65
2016-11-22T03:55:12.123Z,946.65
2016-11-22T03:56:12.312Z,946.64
2016-11-22T03:57:12.301Z,946.67
2016-11-22T03:58:13.026Z,946.69
2016-11-22T03:59:12.061Z,946.70
2016-11-22T04:00:12.050Z,946.74
2016-11-22T04:01:13.167Z,946.79
2016-11-22T04:02:12.883Z,946.78
2016-11-22T04:03:12.637Z,946.77
2016-11-22T04:04:12.606Z,946.78
2016-11-22T04:05:12.678Z,946.84
2016-11-22T04:06:13.124Z,946.82
2016-11-22T04:07:12.729Z,946.83
2016-11-22T04:08:12.635Z,946.87
2016-11-22T04:09:13.078Z,946.84
2016-11-22T04:10:13.929Z,946.92
2016-11-22T04:11:12.589Z,946.90
2016-11-22T04:12:13.821Z,946.90
2016-11-22T04:13:12.491Z,946.94
2016-11-22T04:14:13.443Z,946.93
2016-11-22T04:15:12.602Z,946.94
2016-11-22T04:16:12.672Z,946.94
2016-11-22T04:17:11.545Z,946.96
2016-11-22T04:18:12.626Z,947.00
2016-11-22T04:19:12.706Z,946.99
2016-11-22T04:20:12.601Z,947.00
2016-11-22T04:21:13.277Z,947.05
2016-11-22T04:22:13.088Z,947.08
2016-11-22T04:23:12.111Z,947.04
2016-11-22T04:24:13.821Z,947.07
2016-11-22T04:25:12.199Z,947.09
2016-11-22T04:26:12.291Z,947.09
2016-11-22T04:27:12.877Z,947.05
2016-11-22T04:28:12.007Z,947.09
2016-11-22T04:29:12.501Z,947.09
2016-11-22T04:30:12.504Z,947.11
2016-11-22T04:31:12.926Z,947.09
2016-11-22T04:32:11.890Z,947.06
2016-11-22T04:33:12.013Z,947.08
2016-11-22T04:34:12.072Z,947.11
2016-11-22T04:35:12.218Z,947.13
2016-11-22T04:36:12.332Z,947.16
2016-11-22T04:37:20.472Z,947.17
2016-11-22T04:38:13.042Z,947.20
2016-11-22T04:39:12.208Z,947.21
2016-11-22T04:40:12.374Z,947.22
2016-11-22T04:41:13.322Z,947.27
2016-11-22T04:42:12.752Z,947.25
2016-11-22T04:43:12.661Z,947.25
2016-11-22T04:44:13.228Z,947.24
2016-11-22T04:45:13.238Z,947.25
2016-11-22T04:46:13.693Z,947.24
2016-11-22T04:47:13.229Z,947.23
2016-11-22T04:48:13.342Z,947.25
2016-11-22T04:49:13.761Z,947.25
2016-11-22T04:50:11.848Z,947.26
2016-11-22T04:51:11.924Z,947.33
2016-11-22T04:52:12.206Z,947.30
2016-11-22T04:53:13.244Z,947.32
2016-11-22T04:54:14.469Z,947.36
2016-11-22T04:55:14.862Z,947.38
2016-11-22T04:56:13.368Z,947.39
2016-11-22T04:57:12.789Z,947.41
2016-11-22T04:58:12.607Z,947.42
2016-11-22T04:59:12.687Z,947.39
2016-11-22T05:00:12.604Z,947.46
2016-11-22T05:01:14.111Z,947.46
2016-11-22T05:02:11.264Z,947.45
2016-11-22T05:03:12.226Z,947.46
2016-11-22T05:04:13.974Z,947.40
2016-11-22T05:05:12.684Z,947.44
2016-11-22T05:06:13.543Z,947.42
2016-11-22T05:07:12.414Z,947.44
2016-11-22T05:08:12.885Z,947.46
2016-11-22T05:09:12.011Z,947.44
2016-11-22T05:10:12.574Z,947.49
2016-11-22T05:11:13.008Z,947.47
2016-11-22T05:12:11.078Z,947.52
2016-11-22T05:13:13.260Z,947.49
2016-11-22T05:14:12.437Z,947.50
2016-11-22T05:15:14.164Z,947.45
2016-11-22T05:16:12.734Z,947.47
2016-11-22T05:17:12.865Z,947.47
2016-11-22T05:18:12.161Z,947.51
2016-11-22T05:19:12.959Z,947.48
2016-11-22T05:20:13.493Z,947.55
2016-11-22T05:21:12.501Z,947.53
2016-11-22T05:22:12.474Z,947.53
2016-11-22T05:23:13.290Z,947.57
2016-11-22T05:24:12.182Z,947.57
2016-11-22T05:25:23.432Z,947.57
2016-11-22T05:26:14.092Z,947.62
2016-11-22T05:27:12.189Z,947.65
2016-11-22T05:28:12.865Z,947.64
2016-11-22T05:29:13.691Z,947.63
2016-11-22T05:30:13.386Z,947.66
2016-11-22T05:31:12.898Z,947.66
2016-11-22T05:32:13.349Z,947.69
2016-11-22T05:33:12.532Z,947.70
2016-11-22T05:34:13.101Z,947.71
2016-11-22T05:35:12.566Z,947.72
2016-11-22T05:36:12.511Z,947.73
2016-11-22T05:37:14.198Z,947.74
2016-11-22T05:38:12.797Z,947.74
2016-11-22T05:39:12.584Z,947.72
2016-11-22T05:40:13.389Z,947.73
2016-11-22T05:41:12.492Z,947.72
2016-11-22T05:42:12.465Z,947.69
2016-11-22T05:43:13.556Z,947.72
2016-11-22T05:44:12.597Z,947.73
2016-11-22T05:45:13.959Z,947.72
2016-11-22T05:46:12.676Z,947.71
2016-11-22T05:47:13.451Z,947.76
2016-11-22T05:48:12.381Z,947.80
2016-11-22T05:49:13.781Z,947.74
2016-11-22T05:50:12.366Z,947.83
2016-11-22T05:51:12.388Z,947.78
2016-11-22T05:52:13.245Z,947.82
2016-11-22T05:53:12.408Z,947.77
2016-11-22T05:54:12.553Z,947.79
2016-11-22T05:55:12.564Z,947.84
2016-11-22T05:56:13.247Z,947.84
2016-11-22T05:57:11.031Z,947.81
2016-11-22T05:58:12.234Z,947.87
2016-11-22T05:59:12.959Z,947.86
2016-11-22T06:00:12.094Z,947.87
2016-11-22T06:01:13.830Z,947.90
2016-11-22T06:02:12.718Z,947.90
2016-11-22T06:03:12.893Z,947.93
2016-11-22T06:04:13.457Z,947.93
2016-11-22T06:05:12.431Z,947.94
2016-11-22T06:06:12.409Z,947.97
2016-11-22T06:07:12.998Z,947.99
2016-11-22T06:08:13.353Z,947.97
2016-11-22T06:09:13.898Z,947.98
2016-11-22T06:10:12.318Z,947.96
2016-11-22T06:11:12.911Z,948.01
2016-11-22T06:12:12.128Z,947.99
2016-11-22T06:13:12.310Z,948.01
2016-11-22T06:14:12.382Z,948.01
2016-11-22T06:15:12.291Z,948.02
2016-11-22T06:16:13.760Z,948.04
2016-11-22T06:17:12.037Z,948.03
2016-11-22T06:18:12.815Z,948.02
2016-11-22T06:19:12.442Z,948.04
2016-11-22T06:20:14.169Z,948.04
2016-11-22T06:21:10.948Z,948.06
2016-11-22T06:22:12.092Z,948.07
2016-11-22T06:23:13.927Z,948.13
2016-11-22T06:24:12.101Z,948.13
2016-11-22T06:25:12.111Z,948.15
2016-11-22T06:26:13.142Z,948.15
2016-11-22T06:27:12.272Z,948.16
2016-11-22T06:28:12.421Z,948.21
2016-11-22T06:29:12.553Z,948.21
2016-11-22T06:30:13.503Z,948.20
2016-11-22T06:31:12.871Z,948.20
2016-11-22T06:32:12.008Z,948.24
2016-11-22T06:33:12.073Z,948.22
2016-11-22T06:34:12.148Z,948.27
2016-11-22T06:35:12.132Z,948.28
2016-11-22T06:36:12.169Z,948.35
2016-11-22T06:37:12.362Z,948.37
2016-11-22T06:38:13.368Z,948.38
2016-11-22T06:39:14.081Z,948.42
2016-11-22T06:40:12.575Z,948.44
2016-11-22T06:41:13.122Z,948.46
2016-11-22T06:42:12.573Z,948.47
2016-11-22T06:43:13.320Z,948.46
2016-11-22T06:44:12.483Z,948.48
2016-11-22T06:45:12.383Z,948.44
2016-11-22T06:46:12.934Z,948.44
2016-11-22T06:47:11.910Z,948.49
2016-11-22T06:48:12.529Z,948.54
2016-11-22T06:49:13.148Z,948.57
2016-11-22T06:50:12.342Z,948.56
2016-11-22T06:51:12.167Z,948.56
2016-11-22T06:52:12.289Z,948.60
2016-11-22T06:53:12.697Z,948.59
2016-11-22T06:54:14.365Z,948.63
2016-11-22T06:55:12.823Z,948.64
2016-11-22T06:56:13.577Z,948.64
2016-11-22T06:57:13.413Z,948.69
2016-11-22T06:58:18.037Z,948.69
2016-11-22T06:59:12.031Z,948.70
2016-11-22T07:00:12.713Z,948.71
2016-11-22T07:01:11.542Z,948.73
2016-11-22T07:02:13.263Z,948.71
2016-11-22T07:03:12.869Z,948.75
2016-11-22T07:04:12.573Z,948.75
2016-11-22T07:05:13.078Z,948.79
2016-11-22T07:06:14.304Z,948.74
2016-11-22T07:07:12.954Z,948.75
2016-11-22T07:08:12.603Z,948.79
2016-11-22T07:09:13.164Z,948.81
2016-11-22T07:10:12.198Z,948.84
2016-11-22T07:11:12.238Z,948.86
2016-11-22T07:12:11.218Z,948.91
2016-11-22T07:13:12.034Z,948.96
2016-11-22T07:14:12.043Z,949.01
2016-11-22T07:15:13.492Z,949.03
2016-11-22T07:16:13.082Z,949.10
2016-11-22T07:17:14.011Z,949.09
2016-11-22T07:18:11.055Z,949.21
2016-11-22T07:19:10.750Z,949.19
2016-11-22T07:20:12.482Z,949.24
2016-11-22T07:21:15.935Z,949.27
2016-11-22T07:22:12.463Z,949.30
2016-11-22T07:23:13.333Z,949.31
2016-11-22T07:24:12.259Z,949.33
2016-11-22T07:25:17.935Z,949.38
2016-11-22T07:26:12.598Z,949.41
2016-11-22T07:27:13.220Z,949.43
2016-11-22T07:28:12.975Z,949.43
2016-11-22T07:29:12.131Z,949.44
2016-11-22T07:30:12.063Z,949.45
2016-11-22T07:31:12.093Z,949.48
2016-11-22T07:32:12.891Z,949.50
2016-11-22T07:33:12.052Z,949.53
2016-11-22T07:34:12.820Z,949.53
2016-11-22T07:35:11.783Z,949.58
2016-11-22T07:36:13.050Z,949.56
2016-11-22T07:37:12.749Z,949.58
2016-11-22T07:38:12.673Z,949.54
2016-11-22T07:39:12.733Z,949.61
2016-11-22T07:40:12.806Z,949.68
2016-11-22T07:41:10.975Z,949.66
2016-11-22T07:42:09.318Z,949.65
2016-11-22T07:43:13.092Z,949.65
2016-11-22T07:44:14.616Z,949.64
2016-11-22T07:45:13.326Z,949.65
2016-11-22T07:46:12.260Z,949.65
2016-11-22T07:47:12.245Z,949.67
2016-11-22T07:48:12.281Z,949.70
2016-11-22T07:49:12.902Z,949.73
2016-11-22T07:50:11.994Z,949.73
2016-11-22T07:51:12.555Z,949.73
2016-11-22T07:52:12.641Z,949.75
2016-11-22T07:53:13.270Z,949.81
2016-11-22T07:54:12.310Z,949.78
2016-11-22T07:55:14.163Z,949.78
2016-11-22T07:56:12.913Z,949.74
2016-11-22T07:57:12.426Z,949.76
2016-11-22T07:58:12.258Z,949.82
2016-11-22T07:59:12.326Z,949.77
2016-11-22T08:00:13.042Z,949.77
2016-11-22T08:01:13.781Z,949.78
2016-11-22T08:02:11.811Z,949.78
2016-11-22T08:03:10.914Z,949.78
2016-11-22T08:04:12.678Z,949.81
2016-11-22T08:05:13.249Z,949.79
2016-11-22T08:06:12.657Z,949.81
2016-11-22T08:07:11.680Z,949.81
2016-11-22T08:08:11.873Z,949.82
2016-11-22T08:09:12.086Z,949.83
2016-11-22T08:10:13.898Z,949.83
2016-11-22T08:11:12.516Z,949.87
2016-11-22T08:12:13.037Z,949.84
2016-11-22T08:13:12.075Z,949.81
2016-11-22T08:14:12.137Z,949.80
2016-11-22T08:15:12.732Z,949.82
2016-11-22T08:16:14.125Z,949.81
2016-11-22T08:17:12.920Z,949.91
2016-11-22T08:18:17.414Z,949.91
2016-11-22T08:19:11.252Z,949.93
2016-11-22T08:20:10.998Z,949.96
2016-11-22T08:21:12.860Z,949.97
2016-11-22T08:22:17.599Z,950.00
2016-11-22T08:23:12.781Z,949.97
2016-11-22T08:24:12.428Z,950.00
2016-11-22T08:25:12.512Z,949.99
2016-11-22T08:26:12.946Z,950.02
2016-11-22T08:27:12.476Z,950.02
2016-11-22T08:28:12.486Z,949.99
2016-11-22T08:29:13.147Z,949.97
2016-11-22T08:30:12.150Z,950.00
2016-11-22T08:31:12.733Z,949.99
2016-11-22T08:32:13.069Z,949.99
2016-11-22T08:33:12.665Z,949.96
2016-11-22T08:34:11.567Z,950.00
2016-11-22T08:35:12.583Z,950.00
2016-11-22T08:36:13.013Z,950.03
2016-11-22T08:37:12.946Z,950.09
2016-11-22T08:38:12.754Z,950.10
2016-11-22T08:39:11.682Z,950.10
2016-11-22T08:40:12.966Z,950.12
2016-11-22T08:41:18.310Z,950.16
2016-11-22T08:42:12.421Z,950.19
2016-11-22T08:43:12.424Z,950.18
2016-11-22T08:44:11.363Z,950.18
2016-11-22T08:45:13.008Z,950.19
2016-11-22T08:46:12.605Z,950.15
2016-11-22T08:47:12.487Z,950.16
2016-11-22T08:48:12.553Z,950.19
2016-11-22T08:49:13.310Z,950.22
2016-11-22T08:50:12.199Z,950.23
2016-11-22T08:51:12.254Z,950.22
2016-11-22T08:52:12.895Z,950.23
2016-11-22T08:53:15.078Z,950.25
2016-11-22T08:54:12.227Z,950.24
2016-11-22T08:55:11.986Z,950.27
2016-11-22T08:56:12.088Z,950.31
2016-11-22T08:57:12.528Z,950.34
2016-11-22T08:58:12.967Z,950.33
2016-11-22T08:59:12.042Z,950.37
2016-11-22T09:00:12.857Z,950.35
2016-11-22T09:01:12.326Z,950.32
2016-11-22T09:02:11.091Z,950.37
2016-11-22T09:03:12.687Z,950.32
2016-11-22T09:04:13.250Z,950.34
2016-11-22T09:05:12.418Z,950.32
2016-11-22T09:06:13.498Z,950.35
2016-11-22T09:07:13.212Z,950.36
2016-11-22T09:08:12.206Z,950.41
2016-11-22T09:09:13.005Z,950.43
2016-11-22T09:10:10.911Z,950.43
2016-11-22T09:11:14.915Z,950.44
2016-11-22T09:12:10.451Z,950.41
2016-11-22T09:13:13.138Z,950.41
2016-11-22T09:14:12.740Z,950.41
2016-11-22T09:15:13.279Z,950.39
2016-11-22T09:16:12.396Z,950.36
2016-11-22T09:17:12.624Z,950.38
2016-11-22T09:18:13.096Z,950.40
2016-11-22T09:19:13.168Z,950.39
2016-11-22T09:20:12.342Z,950.41
2016-11-22T09:21:12.514Z,950.41
2016-11-22T09:22:12.412Z,950.40
2016-11-22T09:23:12.294Z,950.34
2016-11-22T09:24:12.824Z,950.42
2016-11-22T09:25:13.903Z,950.46
2016-11-22T09:26:11.929Z,950.47
2016-11-22T09:27:13.877Z,950.44
2016-11-22T09:28:11.999Z,950.48
2016-11-22T09:29:12.552Z,950.54
2016-11-22T09:30:12.546Z,950.54
2016-11-22T09:31:13.161Z,950.54
2016-11-22T09:32:12.876Z,950.56
2016-11-22T09:33:13.695Z,950.61
2016-11-22T09:34:10.471Z,950.60
2016-11-22T09:35:11.747Z,950.58
2016-11-22T09:36:11.929Z,950.57
2016-11-22T09:37:12.809Z,950.56
2016-11-22T09:38:13.517Z,950.56
2016-11-22T09:39:12.633Z,950.54
2016-11-22T09:40:13.233Z,950.58
2016-11-22T09:41:12.754Z,950.59
2016-11-22T09:42:12.442Z,950.55
2016-11-22T09:43:12.940Z,950.57
2016-11-22T09:44:11.902Z,950.56
2016-11-22T09:45:12.180Z,950.57
2016-11-22T09:46:10.784Z,950.59
2016-11-22T09:47:11.924Z,950.59
2016-11-22T09:48:13.454Z,950.60
2016-11-22T09:49:12.428Z,950.60
2016-11-22T09:50:19.475Z,950.62
2016-11-22T09:51:13.073Z,950.62
2016-11-22T09:52:12.474Z,950.63
2016-11-22T09:53:12.838Z,950.62
2016-11-22T09:54:12.079Z,950.60
2016-11-22T09:55:12.836Z,950.62
2016-11-22T09:56:11.925Z,950.58
2016-11-22T09:57:11.913Z,950.56
2016-11-22T09:58:14.546Z,950.62
2016-11-22T09:59:12.632Z,950.60
2016-11-22T10:00:12.776Z,950.63
2016-11-22T10:01:11.813Z,950.61
2016-11-22T10:02:12.379Z,950.56
2016-11-22T10:03:12.309Z,950.61
2016-11-22T10:04:12.944Z,950.59
2016-11-22T10:05:10.807Z,950.58
2016-11-22T10:06:12.458Z,950.58
2016-11-22T10:07:13.065Z,950.57
2016-11-22T10:08:12.437Z,950.55
2016-11-22T10:09:12.838Z,950.54
2016-11-22T10:10:11.978Z,950.53
2016-11-22T10:11:11.209Z,950.56
2016-11-22T10:12:12.702Z,950.52
2016-11-22T10:13:10.906Z,950.54
2016-11-22T10:14:11.049Z,950.54
2016-11-22T10:15:13.037Z,950.53
2016-11-22T10:16:12.190Z,950.56
2016-11-22T10:17:12.245Z,950.55
2016-11-22T10:18:11.088Z,950.49
2016-11-22T10:19:12.677Z,950.48
2016-11-22T10:20:12.645Z,950.53
2016-11-22T10:21:12.604Z,950.52
2016-11-22T10:22:13.299Z,950.50
2016-11-22T10:23:12.805Z,950.50
2016-11-22T10:24:12.430Z,950.50
2016-11-22T10:25:12.941Z,950.52
2016-11-22T10:26:14.656Z,950.56
2016-11-22T10:27:13.344Z,950.56
2016-11-22T10:28:12.300Z,950.56
2016-11-22T10:29:12.288Z,950.60
2016-11-22T10:30:13.712Z,950.57
2016-11-22T10:31:11.510Z,950.61
2016-11-22T10:32:13.145Z,950.64
2016-11-22T10:33:12.836Z,950.60
2016-11-22T10:34:11.949Z,950.64
2016-11-22T10:35:11.998Z,950.61
2016-11-22T10:36:12.069Z,950.61
2016-11-22T10:37:10.881Z,950.64
2016-11-22T10:38:12.607Z,950.61
2016-11-22T10:39:14.275Z,950.64
2016-11-22T10:40:18.670Z,950.61
2016-11-22T10:41:14.485Z,950.60
2016-11-22T10:42:14.303Z,950.61
2016-11-22T10:43:13.999Z,950.63
2016-11-22T10:44:13.979Z,950.64
2016-11-22T10:45:12.119Z,950.65
2016-11-22T10:46:12.311Z,950.63
2016-11-22T10:47:12.278Z,950.59
2016-11-22T10:48:12.411Z,950.60
2016-11-22T10:49:13.098Z,950.60
2016-11-22T10:50:13.928Z,950.61
2016-11-22T10:51:12.748Z,950.63
2016-11-22T10:52:14.408Z,950.63
2016-11-22T10:53:12.460Z,950.62
2016-11-22T10:54:13.131Z,950.63
2016-11-22T10:55:12.258Z,950.63
2016-11-22T10:56:12.191Z,950.66
2016-11-22T10:57:12.692Z,950.65
2016-11-22T10:58:10.969Z,950.64
2016-11-22T10:59:13.106Z,950.63
2016-11-22T11:00:12.051Z,950.60
2016-11-22T11:01:12.547Z,950.61
2016-11-22T11:02:12.426Z,950.60
2016-11-22T11:03:13.131Z,950.55
2016-11-22T11:04:12.996Z,950.58
2016-11-22T11:05:12.712Z,950.61
2016-11-22T11:06:11.706Z,950.62
2016-11-22T11:07:14.429Z,950.63
2016-11-22T11:08:13.028Z,950.65
2016-11-22T11:09:12.246Z,950.66
2016-11-22T11:10:20.017Z,950.64
2016-11-22T11:11:11.000Z,950.64
2016-11-22T11:12:11.990Z,950.63
2016-11-22T11:13:11.970Z,950.68
2016-11-22T11:14:12.051Z,950.68
2016-11-22T11:15:12.581Z,950.63
2016-11-22T11:16:11.593Z,950.63
2016-11-22T11:17:14.127Z,950.64
2016-11-22T11:18:12.691Z,950.66
2016-11-22T11:19:13.517Z,950.61
2016-11-22T11:20:12.576Z,950.64
2016-11-22T11:21:13.174Z,950.63
2016-11-22T11:22:12.234Z,950.57
2016-11-22T11:23:12.271Z,950.53
2016-11-22T11:24:12.784Z,950.55
2016-11-22T11:25:11.812Z,950.53
2016-11-22T11:26:14.398Z,950.55
2016-11-22T11:27:12.480Z,950.51
2016-11-22T11:28:13.358Z,950.50
2016-11-22T11:29:13.790Z,950.54
2016-11-22T11:30:14.127Z,950.55
2016-11-22T11:31:12.192Z,950.51
2016-11-22T11:32:13.122Z,950.52
2016-11-22T11:33:10.793Z,950.50
2016-11-22T11:34:12.329Z,950.51
2016-11-22T11:35:11.131Z,950.55
2016-11-22T11:36:11.046Z,950.50
2016-11-22T11:37:12.421Z,950.50
2016-11-22T11:38:13.104Z,950.53
2016-11-22T11:39:11.222Z,950.50
2016-11-22T11:40:13.791Z,950.52
2016-11-22T11:41:12.583Z,950.48
2016-11-22T11:42:14.255Z,950.48
2016-11-22T11:43:12.308Z,950.47
2016-11-22T11:44:12.679Z,950.47
2016-11-22T11:45:12.105Z,950.48
2016-11-22T11:46:12.709Z,950.44
2016-11-22T11:47:11.593Z,950.43
2016-11-22T11:48:12.576Z,950.43
2016-11-22T11:49:13.385Z,950.45
2016-11-22T11:50:12.427Z,950.44
2016-11-22T11:51:12.237Z,950.47
2016-11-22T11:52:12.345Z,950.45
2016-11-22T11:53:12.664Z,950.45
2016-11-22T11:54:13.344Z,950.47
2016-11-22T11:55:12.288Z,950.44
2016-11-22T11:56:13.058Z,950.41
2016-11-22T11:57:13.680Z,950.46
2016-11-22T11:58:13.157Z,950.45
2016-11-22T11:59:12.258Z,950.49
2016-11-22T12:00:12.796Z,950.50
2016-11-22T12:01:11.700Z,950.54
2016-11-22T12:02:13.174Z,950.52
2016-11-22T12:03:12.317Z,950.52
2016-11-22T12:04:12.845Z,950.52
2016-11-22T12:05:11.736Z,950.51
2016-11-22T12:06:11.740Z,950.53
2016-11-22T12:07:13.332Z,950.56
2016-11-22T12:08:12.399Z,950.54
2016-11-22T12:09:12.405Z,950.53
2016-11-22T12:10:13.007Z,950.53
2016-11-22T12:11:13.810Z,950.52
2016-11-22T12:12:11.846Z,950.50
2016-11-22T12:13:12.231Z,950.51
2016-11-22T12:14:12.180Z,950.47
2016-11-22T12:15:13.189Z,950.48
2016-11-22T12:16:14.671Z,950.46
2016-11-22T12:17:14.658Z,950.43
2016-11-22T12:18:13.017Z,950.44
2016-11-22T12:19:10.164Z,950.41
2016-11-22T12:20:12.014Z,950.39
2016-11-22T12:21:12.541Z,950.37
2016-11-22T12:22:13.464Z,950.31
2016-11-22T12:23:12.555Z,950.35
2016-11-22T12:24:11.472Z,950.34
2016-11-22T12:25:19.697Z,950.33
2016-11-22T12:26:13.448Z,950.32
2016-11-22T12:27:12.520Z,950.30
2016-11-22T12:28:13.132Z,950.35